Time;durP1;ratioP1;P1;durP2;ratioP2;P2;SDS_P1;SDS_P2;PMS_P1;PMS_P2;Temp;Humidity;BMP_temperature;BMP_pressure;BME280_temperature;BME280_humidity;BME280_pressure;Samples;Min_cycle;Max_cycle;Signal;HPM_P1;HPM_P2
2022/06/18 00:02:02;;;;;;;5.47;2.33;;;15.70;99.90;;;;;;5036336;28;20199;-74
2022/06/18 00:04:29;;;;;;;4.50;2.50;;;15.70;99.90;;;;;;5036020;28;20211;-73
2022/06/18 00:06:59;;;;;;;2.85;2.50;;;15.90;99.90;;;;;;5036060;28;20256;-73
2022/06/18 00:09:29;;;;;;;3.85;2.63;;;15.90;99.90;;;;;;5036171;28;20199;-73
2022/06/18 00:14:45;;;;;;;5.38;2.53;;;15.90;99.90;;;;;;5036250;28;20696;-73
2022/06/18 00:17:15;;;;;;;3.80;2.63;;;16.10;99.90;;;;;;5035770;28;20282;-74
2022/06/18 00:19:41;;;;;;;3.53;2.50;;;16.20;99.90;;;;;;5036109;28;20252;-73
2022/06/18 00:22:12;;;;;;;5.20;2.50;;;16.00;99.90;;;;;;5035970;28;20198;-74
2022/06/18 00:24:38;;;;;;;3.90;2.35;;;15.80;99.90;;;;;;5035912;28;20206;-74
2022/06/18 00:27:05;;;;;;;3.38;2.47;;;15.80;99.90;;;;;;5035826;28;20207;-73
2022/06/18 00:29:32;;;;;;;3.63;2.50;;;15.80;99.90;;;;;;5035721;28;20256;-73
2022/06/18 00:31:59;;;;;;;5.27;2.67;;;15.60;99.90;;;;;;5035630;28;20203;-73
2022/06/18 00:34:27;;;;;;;3.30;2.15;;;15.60;99.90;;;;;;5035677;28;20202;-73
2022/06/18 00:36:53;;;;;;;6.67;2.60;;;15.60;99.90;;;;;;5035478;28;20592;-73
2022/06/18 00:39:20;;;;;;;4.10;2.23;;;15.60;99.90;;;;;;5035657;28;20198;-74
2022/06/18 00:41:51;;;;;;;4.33;2.70;;;15.50;99.90;;;;;;5035577;28;20264;-74
2022/06/18 00:44:28;;;;;;;4.72;2.50;;;15.50;99.90;;;;;;5035430;28;20202;-74
2022/06/18 00:47:08;;;;;;;5.93;3.00;;;15.50;99.90;;;;;;5035576;28;20202;-73
2022/06/18 00:49:42;;;;;;;2.92;2.63;;;15.70;99.90;;;;;;5035305;28;20730;-74
2022/06/18 00:52:15;;;;;;;4.10;2.75;;;15.70;99.90;;;;;;5035565;28;20289;-73
2022/06/18 00:54:46;;;;;;;2.60;2.40;;;15.70;99.90;;;;;;5035175;28;20214;-73
2022/06/18 00:57:18;;;;;;;2.47;2.27;;;15.50;99.90;;;;;;5035189;28;20252;-73
2022/06/18 00:59:49;;;;;;;4.07;2.50;;;15.40;99.90;;;;;;5035361;28;20260;-73
2022/06/18 01:02:21;;;;;;;2.67;2.30;;;15.40;99.90;;;;;;5035270;28;20535;-74
2022/06/18 01:04:49;;;;;;;2.80;2.50;;;15.40;99.90;;;;;;5035098;28;20659;-73
2022/06/18 01:07:20;;;;;;;3.83;2.20;;;15.30;99.90;;;;;;5034987;28;20616;-73
2022/06/18 01:09:50;;;;;;;3.50;2.50;;;15.30;99.90;;;;;;5034161;28;20350;-73
2022/06/18 01:12:17;;;;;;;3.50;2.20;;;15.20;99.90;;;;;;5035056;28;20222;-74
2022/06/18 01:14:45;;;;;;;3.77;2.30;;;15.20;99.90;;;;;;5034904;28;20731;-73
2022/06/18 01:17:12;;;;;;;3.07;2.30;;;15.10;99.90;;;;;;5034720;28;20230;-73
2022/06/18 01:19:43;;;;;;;2.67;2.27;;;15.10;99.90;;;;;;5034730;28;20260;-73
2022/06/18 01:22:25;;;;;;;5.87;2.30;;;15.20;99.90;;;;;;5034753;28;20645;-74
2022/06/18 01:24:53;;;;;;;2.47;2.00;;;15.20;99.90;;;;;;5035093;28;20256;-73
2022/06/18 01:27:20;;;;;;;3.30;2.70;;;15.10;99.90;;;;;;5034794;28;20199;-73
2022/06/18 01:29:47;;;;;;;4.43;3.20;;;15.20;99.90;;;;;;5034697;28;20198;-73
2022/06/18 01:32:17;;;;;;;5.57;3.23;;;15.20;99.90;;;;;;5034466;28;20257;-74
2022/06/18 01:34:45;;;;;;;7.07;4.27;;;15.20;99.90;;;;;;5034406;28;20599;-73
2022/06/18 01:37:13;;;;;;;7.57;3.40;;;15.20;99.90;;;;;;5034721;28;20202;-74
2022/06/18 01:39:42;;;;;;;4.57;3.50;;;15.10;99.90;;;;;;5034595;28;20198;-73
2022/06/18 01:42:15;;;;;;;7.60;4.13;;;15.20;99.90;;;;;;5034557;28;20538;-73
2022/06/18 01:44:46;;;;;;;9.67;5.93;;;15.10;99.90;;;;;;5034409;28;20194;-73
2022/06/18 01:47:17;;;;;;;10.37;7.03;;;15.00;99.90;;;;;;5034486;28;20233;-73
2022/06/18 01:49:51;;;;;;;7.47;6.33;;;15.10;99.90;;;;;;5034476;28;20198;-73
2022/06/18 01:52:23;;;;;;;9.33;5.60;;;15.00;99.90;;;;;;5034280;28;20253;-73
2022/06/18 01:54:55;;;;;;;11.20;7.17;;;14.90;99.90;;;;;;5034210;28;20261;-73
2022/06/18 01:57:27;;;;;;;13.23;7.20;;;15.00;99.90;;;;;;5034550;28;20199;-74
2022/06/18 01:59:57;;;;;;;11.37;6.73;;;15.00;99.90;;;;;;5034195;28;20198;-73
2022/06/18 02:02:24;;;;;;;11.93;6.93;;;15.00;99.90;;;;;;5034017;28;20202;-73
2022/06/18 02:04:51;;;;;;;10.37;7.27;;;14.90;99.90;;;;;;5034094;28;20198;-73
2022/06/18 02:07:19;;;;;;;11.37;6.17;;;14.90;99.90;;;;;;5033877;28;20194;-74
2022/06/18 02:09:51;;;;;;;9.73;6.20;;;14.80;99.90;;;;;;5033823;28;20206;-75
2022/06/18 02:12:21;;;;;;;8.70;6.03;;;14.80;99.90;;;;;;5033822;28;20240;-74
2022/06/18 02:14:54;;;;;;;11.03;6.50;;;14.70;99.90;;;;;;5033819;28;20198;-74
2022/06/18 02:17:22;;;;;;;7.43;5.00;;;14.60;99.90;;;;;;5033802;28;20234;-74
2022/06/18 02:19:52;;;;;;;5.83;4.13;;;14.60;99.90;;;;;;5033737;28;20198;-74
2022/06/18 02:22:22;;;;;;;9.67;4.73;;;14.60;99.90;;;;;;5033372;28;20194;-74
2022/06/18 02:24:48;;;;;;;12.33;6.87;;;14.60;99.90;;;;;;5033750;28;20206;-73
2022/06/18 02:27:17;;;;;;;14.90;7.57;;;14.60;99.90;;;;;;5033637;28;20233;-73
2022/06/18 02:29:46;;;;;;;13.67;7.10;;;14.50;99.90;;;;;;5033590;28;20566;-72
2022/06/18 02:32:22;;;;;;;12.03;6.23;;;14.50;99.90;;;;;;5033599;28;20195;-73
2022/06/18 02:34:49;;;;;;;8.83;5.23;;;14.50;99.90;;;;;;5033322;28;20206;-73
2022/06/18 02:37:22;;;;;;;5.93;4.77;;;14.50;99.90;;;;;;5033611;28;20248;-73
2022/06/18 02:39:55;;;;;;;7.13;4.57;;;14.40;99.90;;;;;;5033512;28;20194;-73
2022/06/18 02:42:22;;;;;;;7.83;5.37;;;14.50;99.90;;;;;;5033433;28;20252;-73
2022/06/18 02:44:51;;;;;;;7.47;4.50;;;14.40;99.90;;;;;;5033292;28;20198;-73
2022/06/18 02:47:21;;;;;;;7.67;5.07;;;14.30;99.90;;;;;;5033247;28;20225;-73
2022/06/18 02:49:52;;;;;;;11.00;5.03;;;14.30;99.90;;;;;;5033388;28;20230;-73
2022/06/18 02:52:19;;;;;;;10.83;5.13;;;14.20;99.90;;;;;;5033269;28;20198;-73
2022/06/18 02:54:46;;;;;;;6.63;4.70;;;14.20;99.90;;;;;;5033265;28;20382;-73
2022/06/18 02:57:23;;;;;;;6.77;4.97;;;14.20;99.90;;;;;;5032959;28;20225;-73
2022/06/18 02:59:49;;;;;;;5.87;4.50;;;14.10;99.90;;;;;;5033408;28;20657;-72
2022/06/18 03:02:16;;;;;;;8.10;4.80;;;14.10;99.90;;;;;;5033810;28;20252;-73
2022/06/18 03:04:44;;;;;;;5.13;4.53;;;14.00;99.90;;;;;;5034001;28;20232;-73
2022/06/18 03:07:11;;;;;;;5.77;4.70;;;13.90;99.90;;;;;;5033969;28;20213;-73
2022/06/18 03:12:06;;;;;;;6.63;4.63;;;13.90;99.90;;;;;;5033796;28;20624;-73
2022/06/18 03:12:23;;;;;;;6.33;4.37;;;13.90;99.90;;;;;;5033826;28;20214;-73
2022/06/18 03:14:50;;;;;;;4.57;4.10;;;13.90;99.90;;;;;;5033737;28;20194;-73
2022/06/18 03:17:17;;;;;;;5.20;4.60;;;13.90;99.90;;;;;;5033790;28;20288;-73
2022/06/18 03:19:51;;;;;;;6.27;4.47;;;13.90;99.90;;;;;;5033991;28;20205;-74
2022/06/18 03:22:20;;;;;;;5.50;4.70;;;13.80;99.90;;;;;;5033815;28;20209;-74
2022/06/18 03:24:47;;;;;;;5.83;4.90;;;13.90;99.90;;;;;;5033420;28;20596;-74
2022/06/18 03:27:16;;;;;;;8.37;4.93;;;13.90;99.90;;;;;;5033685;28;20209;-73
2022/06/18 03:29:43;;;;;;;4.73;4.20;;;13.80;99.90;;;;;;5033622;28;20206;-72
2022/06/18 03:32:10;;;;;;;7.13;4.43;;;13.80;99.90;;;;;;5033781;28;20289;-73
2022/06/18 03:34:37;;;;;;;4.70;4.17;;;13.80;99.90;;;;;;5036787;28;20206;-72
2022/06/18 03:37:06;;;;;;;5.87;4.50;;;13.90;99.90;;;;;;5037289;28;20222;-73
2022/06/18 03:39:32;;;;;;;4.77;4.30;;;13.90;99.90;;;;;;5037023;28;20198;-74
2022/06/18 03:41:59;;;;;;;6.13;4.50;;;14.00;99.90;;;;;;5036849;28;20252;-73
2022/06/18 03:44:26;;;;;;;6.70;5.00;;;14.00;99.90;;;;;;5036753;28;20198;-73
2022/06/18 03:46:53;;;;;;;7.27;4.90;;;13.90;99.90;;;;;;5036680;28;20202;-73
2022/06/18 03:49:25;;;;;;;5.77;4.80;;;14.00;99.90;;;;;;5036510;28;20665;-73
2022/06/18 03:51:52;;;;;;;5.40;4.90;;;14.10;99.90;;;;;;5036435;28;20198;-73
2022/06/18 03:54:20;;;;;;;5.60;4.60;;;14.20;99.90;;;;;;5036391;28;20328;-73
2022/06/18 03:56:47;;;;;;;7.03;4.50;;;14.20;99.90;;;;;;5036412;28;20256;-73
2022/06/18 03:59:14;;;;;;;6.93;4.90;;;14.30;99.90;;;;;;5036358;28;20194;-73
2022/06/18 04:01:41;;;;;;;6.63;4.67;;;14.40;99.90;;;;;;5036280;28;20198;-74
2022/06/18 04:04:08;;;;;;;5.07;4.57;;;14.50;99.90;;;;;;5036306;28;20236;-73
2022/06/18 04:06:35;;;;;;;8.67;4.67;;;14.50;99.90;;;;;;5036041;28;20252;-74
2022/06/18 04:09:01;;;;;;;6.07;4.43;;;14.60;99.90;;;;;;5036213;28;20203;-73
2022/06/18 04:11:30;;;;;;;5.97;4.90;;;14.70;99.90;;;;;;5036169;28;20256;-73
2022/06/18 04:13:56;;;;;;;4.87;4.23;;;14.70;99.90;;;;;;5036051;28;20264;-73
2022/06/18 04:16:23;;;;;;;7.83;4.53;;;14.80;99.90;;;;;;5035706;28;20747;-74
2022/06/18 04:18:50;;;;;;;6.97;4.63;;;14.90;99.90;;;;;;5035967;28;20256;-73
2022/06/18 04:21:16;;;;;;;8.50;4.90;;;14.90;99.90;;;;;;5036100;28;20209;-73
2022/06/18 04:23:44;;;;;;;5.77;4.70;;;14.90;99.90;;;;;;5036253;28;20206;-73
2022/06/18 04:26:12;;;;;;;12.23;4.60;;;15.10;99.90;;;;;;5035768;28;20675;-74
2022/06/18 04:28:40;;;;;;;4.53;4.10;;;15.10;99.90;;;;;;5036190;28;20202;-73
2022/06/18 04:31:08;;;;;;;7.77;4.70;;;15.20;99.90;;;;;;5035800;28;20202;-73
2022/06/18 04:33:35;;;;;;;6.68;4.40;;;15.30;99.90;;;;;;5035790;28;20198;-74
2022/06/18 04:36:01;;;;;;;7.47;4.80;;;15.40;99.90;;;;;;5035803;28;20256;-74
2022/06/18 04:38:28;;;;;;;6.33;4.70;;;15.50;99.90;;;;;;5035700;28;20198;-73
2022/06/18 04:40:55;;;;;;;6.17;5.00;;;15.60;99.90;;;;;;5035685;28;20273;-73
2022/06/18 04:43:22;;;;;;;6.93;4.47;;;15.80;99.90;;;;;;5035606;28;20202;-73
2022/06/18 04:45:50;;;;;;;5.93;4.68;;;16.00;99.90;;;;;;5035542;28;20203;-73
2022/06/18 04:48:17;;;;;;;5.50;4.97;;;16.10;99.90;;;;;;5035607;28;20202;-73
2022/06/18 04:50:43;;;;;;;6.65;5.22;;;16.10;99.90;;;;;;5035817;28;20589;-74
2022/06/18 04:53:11;;;;;;;6.97;4.88;;;16.20;99.90;;;;;;5035506;28;20202;-73
2022/06/18 04:55:39;;;;;;;8.77;5.50;;;16.30;99.90;;;;;;5035072;28;20653;-73
2022/06/18 04:58:06;;;;;;;10.50;5.68;;;16.40;99.90;;;;;;5035197;28;20256;-73
2022/06/18 05:00:33;;;;;;;8.13;5.00;;;16.60;99.90;;;;;;5035058;28;20237;-74
2022/06/18 05:03:01;;;;;;;7.38;5.60;;;16.70;99.90;;;;;;5035332;28;20200;-74
2022/06/18 05:05:29;;;;;;;7.40;5.15;;;16.80;99.90;;;;;;5035198;28;20244;-73
2022/06/18 05:07:56;;;;;;;13.85;5.30;;;17.00;99.90;;;;;;5035179;28;20302;-73
2022/06/18 05:10:23;;;;;;;9.05;5.43;;;17.10;99.90;;;;;;5035115;28;20202;-73
2022/06/18 05:12:49;;;;;;;10.15;5.80;;;17.30;99.90;;;;;;5035051;28;20664;-73
2022/06/18 05:15:17;;;;;;;9.68;6.30;;;17.40;99.90;;;;;;5034892;28;20209;-74
2022/06/18 05:17:45;;;;;;;11.65;6.80;;;17.50;99.90;;;;;;5034925;28;20245;-72
2022/06/18 05:20:18;;;;;;;9.38;6.50;;;17.70;99.90;;;;;;5035139;28;20249;-73
2022/06/18 05:22:45;;;;;;;9.05;6.35;;;17.80;99.90;;;;;;5034958;28;20229;-72
2022/06/18 05:25:12;;;;;;;9.07;6.47;;;17.90;99.90;;;;;;5034953;28;20198;-73
2022/06/18 05:27:40;;;;;;;9.43;6.90;;;18.00;99.90;;;;;;5034589;28;20198;-73
2022/06/18 05:30:09;;;;;;;9.65;6.18;;;18.10;99.90;;;;;;5034994;28;20202;-73
2022/06/18 05:32:36;;;;;;;7.63;6.13;;;18.30;99.90;;;;;;5034750;28;20256;-73
2022/06/18 05:35:03;;;;;;;9.35;5.90;;;18.40;99.90;;;;;;5034487;28;20561;-73
2022/06/18 05:37:32;;;;;;;9.25;6.30;;;18.60;99.90;;;;;;5034365;28;20226;-73
2022/06/18 05:39:59;;;;;;;9.77;5.93;;;18.80;99.90;;;;;;5034286;28;20241;-73
2022/06/18 05:42:26;;;;;;;8.13;5.55;;;18.80;99.90;;;;;;5034365;28;20201;-73
2022/06/18 05:44:54;;;;;;;8.38;5.45;;;18.90;99.90;;;;;;5034739;28;20241;-74
2022/06/18 05:47:23;;;;;;;6.65;5.05;;;19.10;99.90;;;;;;5034537;28;20198;-74
2022/06/18 05:49:50;;;;;;;4.72;4.25;;;19.30;99.90;;;;;;5034194;28;20229;-73
2022/06/18 05:52:17;;;;;;;5.10;4.60;;;19.40;99.90;;;;;;5034180;28;20205;-73
2022/06/18 05:54:46;;;;;;;5.70;4.10;;;19.60;99.90;;;;;;5034067;28;20202;-73
2022/06/18 05:57:12;;;;;;;7.50;4.53;;;19.70;99.90;;;;;;5033645;28;20226;-73
2022/06/18 05:59:40;;;;;;;7.25;4.68;;;19.90;99.90;;;;;;5034116;28;20195;-74
2022/06/18 06:02:07;;;;;;;5.15;4.65;;;19.90;99.90;;;;;;5034039;28;20225;-74
2022/06/18 06:04:34;;;;;;;4.85;3.78;;;20.10;99.90;;;;;;5034034;28;20200;-74
2022/06/18 06:07:00;;;;;;;4.75;4.25;;;20.20;99.90;;;;;;5034407;28;20195;-74
2022/06/18 06:12:14;;;;;;;4.35;3.83;;;20.50;99.90;;;;;;5034114;28;20201;-74
2022/06/18 06:14:42;;;;;;;6.15;4.78;;;20.60;99.90;;;;;;5033979;28;20194;-74
2022/06/18 06:17:12;;;;;;;8.10;4.47;;;20.70;99.90;;;;;;5033617;28;20234;-74
2022/06/18 06:19:39;;;;;;;9.10;4.38;;;20.80;99.90;;;;;;5033631;28;20252;-74
2022/06/18 06:22:06;;;;;;;6.35;4.40;;;21.00;99.90;;;;;;5034029;28;20198;-74
2022/06/18 06:24:32;;;;;;;5.22;4.70;;;21.10;99.90;;;;;;5033542;28;20256;-74
2022/06/18 06:26:59;;;;;;;6.93;4.55;;;21.20;99.90;;;;;;5033631;28;20194;-74
2022/06/18 06:29:27;;;;;;;7.13;5.43;;;21.40;99.90;;;;;;5033541;28;20198;-74
2022/06/18 06:31:53;;;;;;;7.72;4.55;;;21.60;99.90;;;;;;5033460;28;20198;-74
2022/06/18 06:34:20;;;;;;;6.97;4.55;;;21.70;99.90;;;;;;5033332;28;20264;-74
2022/06/18 06:36:47;;;;;;;4.50;4.00;;;21.70;99.90;;;;;;5033348;28;20364;-74
2022/06/18 06:39:13;;;;;;;8.75;4.55;;;21.90;99.90;;;;;;5033318;28;20244;-74
2022/06/18 06:41:40;;;;;;;5.13;4.28;;;22.00;99.90;;;;;;5033245;28;20199;-74
2022/06/18 06:44:07;;;;;;;6.07;4.07;;;22.20;99.90;;;;;;5033250;28;20249;-75
2022/06/18 06:46:35;;;;;;;3.78;3.40;;;22.30;99.90;;;;;;5033089;28;20205;-76
2022/06/18 06:49:01;;;;;;;6.97;3.95;;;22.50;99.90;;;;;;5032967;28;20202;-75
2022/06/18 06:51:31;;;;;;;5.45;3.55;;;22.70;99.90;;;;;;5033098;28;20596;-75
2022/06/18 06:53:58;;;;;;;4.82;3.55;;;22.80;99.20;;;;;;5033405;28;20198;-75
2022/06/18 06:59:10;;;;;;;4.90;3.50;;;23.10;97.50;;;;;;5033176;28;20283;-74
2022/06/18 07:01:39;;;;;;;3.40;3.10;;;23.30;94.80;;;;;;5033402;28;20217;-74
2022/06/18 07:04:07;;;;;;;3.60;3.30;;;23.40;93.10;;;;;;5033157;28;20206;-75
2022/06/18 07:06:35;;;;;;;3.13;2.83;;;23.50;89.60;;;;;;5032967;28;20225;-75
2022/06/18 07:09:02;;;;;;;3.92;3.03;;;23.60;85.60;;;;;;5032102;28;20202;-75
2022/06/18 07:11:28;;;;;;;3.60;3.30;;;23.70;85.30;;;;;;5032768;28;20258;-75
2022/06/18 07:13:55;;;;;;;3.97;3.00;;;23.90;84.40;;;;;;5032730;28;20276;-75
2022/06/18 07:16:21;;;;;;;3.75;2.90;;;24.00;80.10;;;;;;5032633;28;20728;-75
2022/06/18 07:18:52;;;;;;;3.75;3.20;;;24.10;75.00;;;;;;5032721;28;20650;-75
2022/06/18 07:21:19;;;;;;;4.07;2.83;;;24.10;74.00;;;;;;5032872;28;20194;-76
2022/06/18 07:23:46;;;;;;;5.72;3.17;;;24.20;74.00;;;;;;5032722;28;20728;-75
2022/06/18 07:26:15;;;;;;;5.53;2.72;;;24.30;72.50;;;;;;5032748;28;20198;-76
2022/06/18 07:28:43;;;;;;;8.15;2.92;;;24.50;72.00;;;;;;5033151;28;20199;-76
2022/06/18 07:31:14;;;;;;;5.40;3.03;;;24.60;70.30;;;;;;5032686;28;20201;-77
2022/06/18 07:33:43;;;;;;;5.45;3.10;;;24.60;68.60;;;;;;5032490;28;20256;-74
2022/06/18 07:36:11;;;;;;;5.15;3.30;;;24.50;68.20;;;;;;5032550;28;20205;-74
2022/06/18 07:38:37;;;;;;;5.90;3.40;;;24.60;68.40;;;;;;5032386;28;20296;-74
2022/06/18 07:41:05;;;;;;;3.20;2.90;;;24.80;69.30;;;;;;5032613;28;20697;-74
2022/06/18 07:43:36;;;;;;;3.03;2.83;;;24.80;68.50;;;;;;5032253;28;20650;-75
2022/06/18 07:46:04;;;;;;;3.47;3.17;;;24.80;69.40;;;;;;5032603;28;20194;-74
2022/06/18 07:48:31;;;;;;;3.88;3.50;;;25.00;68.20;;;;;;5032319;28;20202;-74
2022/06/18 07:50:58;;;;;;;3.90;3.20;;;25.10;68.10;;;;;;5032332;28;20542;-74
2022/06/18 07:53:27;;;;;;;3.33;3.13;;;25.10;68.60;;;;;;5032306;28;20198;-74
2022/06/18 07:55:56;;;;;;;3.67;3.22;;;25.30;68.90;;;;;;5032495;28;20198;-74
2022/06/18 07:58:22;;;;;;;4.53;3.15;;;25.50;69.00;;;;;;5032099;28;20570;-75
2022/06/18 08:00:49;;;;;;;4.35;3.10;;;25.80;70.00;;;;;;5032362;28;20653;-75
2022/06/18 08:03:17;;;;;;;7.35;3.75;;;26.00;67.90;;;;;;5032644;28;20666;-76
2022/06/18 08:05:44;;;;;;;4.10;3.10;;;26.10;66.60;;;;;;5032342;28;20199;-74
2022/06/18 08:08:11;;;;;;;5.65;3.88;;;26.30;67.10;;;;;;5032049;28;20194;-74
2022/06/18 08:10:41;;;;;;;5.38;3.47;;;26.40;66.40;;;;;;5032357;28;20301;-74
2022/06/18 08:13:08;;;;;;;3.95;3.40;;;26.70;65.60;;;;;;5032260;28;20203;-74
2022/06/18 08:15:35;;;;;;;4.57;3.67;;;26.90;65.00;;;;;;5032245;28;20198;-75
2022/06/18 08:18:02;;;;;;;3.80;3.40;;;26.80;63.90;;;;;;5032160;28;20234;-75
2022/06/18 08:20:30;;;;;;;6.35;3.20;;;26.90;63.30;;;;;;5034624;28;20580;-75
2022/06/18 08:22:57;;;;;;;8.23;3.95;;;27.00;62.30;;;;;;5036127;28;20237;-75
2022/06/18 08:25:27;;;;;;;4.88;3.50;;;27.30;60.20;;;;;;5036114;28;20284;-75
2022/06/18 08:27:56;;;;;;;3.42;3.17;;;27.40;62.00;;;;;;5035972;28;20206;-75
2022/06/18 08:30:23;;;;;;;5.45;3.38;;;27.60;61.40;;;;;;5035813;28;20199;-75
2022/06/18 08:32:49;;;;;;;6.10;3.30;;;28.10;61.80;;;;;;5035719;28;20256;-75
2022/06/18 08:35:16;;;;;;;3.83;3.42;;;28.60;59.80;;;;;;5035388;28;20202;-76
2022/06/18 08:37:44;;;;;;;5.00;3.28;;;28.50;55.30;;;;;;5035761;28;20222;-75
2022/06/18 08:40:35;;;;;;;4.70;2.80;;;28.40;50.80;;;;;;5035618;28;20198;-75
2022/06/18 08:43:14;;;;;;;3.33;2.88;;;28.60;49.20;;;;;;5035575;28;20284;-82
2022/06/18 08:45:44;;;;;;;2.90;2.70;;;28.60;47.30;;;;;;5035367;28;20202;-75
2022/06/18 08:48:46;;;;;;;3.13;2.58;;;28.70;42.50;;;;;;5035462;28;20194;-75
2022/06/18 08:51:25;;;;;;;2.70;2.50;;;28.90;42.30;;;;;;5035379;28;20201;-75
2022/06/18 08:54:09;;;;;;;3.10;2.80;;;28.80;39.40;;;;;;5035229;28;20202;-75
2022/06/18 08:56:43;;;;;;;3.42;2.45;;;28.70;40.20;;;;;;5035453;28;20201;-75
2022/06/18 08:59:21;;;;;;;4.15;2.63;;;28.90;39.50;;;;;;5035238;28;20226;-75
2022/06/18 09:01:55;;;;;;;5.45;2.65;;;28.70;37.00;;;;;;5035148;28;20205;-75
2022/06/18 09:04:32;;;;;;;4.32;2.67;;;29.00;38.80;;;;;;5034961;28;20256;-74
2022/06/18 09:07:16;;;;;;;3.25;2.53;;;29.00;37.60;;;;;;5035016;28;20212;-73
2022/06/18 09:09:54;;;;;;;2.60;2.40;;;29.30;37.20;;;;;;5035016;28;20205;-75
2022/06/18 09:12:25;;;;;;;2.83;2.60;;;29.30;36.10;;;;;;5034888;28;20205;-75
2022/06/18 09:14:58;;;;;;;2.80;2.60;;;29.10;36.10;;;;;;5034858;28;20228;-75
2022/06/18 09:17:29;;;;;;;4.78;2.45;;;29.20;34.60;;;;;;5034910;28;20261;-75
2022/06/18 09:20:00;;;;;;;2.60;2.40;;;29.40;33.50;;;;;;5035123;28;20630;-75
2022/06/18 09:22:28;;;;;;;3.42;2.50;;;29.70;31.30;;;;;;5035043;28;20205;-75
2022/06/18 09:25:01;;;;;;;4.90;2.42;;;30.00;32.50;;;;;;5034798;28;20241;-75
2022/06/18 09:27:39;;;;;;;5.05;2.53;;;29.90;31.00;;;;;;5034528;28;20218;-75
2022/06/18 09:30:13;;;;;;;6.30;2.70;;;30.30;31.80;;;;;;5032040;28;20210;-74
2022/06/18 09:32:47;;;;;;;2.45;2.25;;;31.00;31.30;;;;;;5032840;28;20198;-75
2022/06/18 09:35:19;;;;;;;2.92;2.35;;;31.50;30.50;;;;;;5032677;28;20617;-76
2022/06/18 09:37:53;;;;;;;3.42;2.50;;;32.20;28.80;;;;;;5034260;28;20218;-74
2022/06/18 09:40:24;;;;;;;3.47;2.40;;;31.90;28.40;;;;;;5034559;28;20202;-74
2022/06/18 09:42:58;;;;;;;3.40;2.40;;;30.70;27.60;;;;;;5034227;28;20206;-76
2022/06/18 09:45:31;;;;;;;4.88;2.40;;;31.20;27.40;;;;;;5034394;28;20198;-76
2022/06/18 09:47:58;;;;;;;4.03;2.55;;;30.70;27.60;;;;;;5034187;28;20210;-74
2022/06/18 09:50:30;;;;;;;3.35;2.50;;;31.50;26.90;;;;;;5034543;28;20205;-75
2022/06/18 09:53:03;;;;;;;5.85;2.25;;;31.30;26.20;;;;;;5034360;28;20199;-74
2022/06/18 09:55:37;;;;;;;3.25;2.17;;;31.50;24.40;;;;;;5034238;28;20206;-76
2022/06/18 09:58:09;;;;;;;5.28;2.85;;;31.70;23.90;;;;;;5034041;28;20271;-74
2022/06/18 10:00:38;;;;;;;3.25;2.53;;;31.50;24.50;;;;;;5034122;28;20253;-76
2022/06/18 10:03:11;;;;;;;2.65;2.05;;;31.60;23.30;;;;;;5034204;28;20332;-75
2022/06/18 10:08:33;;;;;;;5.22;2.33;;;32.20;22.70;;;;;;5033913;28;20297;-74
2022/06/18 10:11:08;;;;;;;4.90;2.17;;;32.60;20.70;;;;;;5033624;28;20261;-74
2022/06/18 10:13:40;;;;;;;6.20;2.63;;;32.00;21.80;;;;;;5033992;28;20285;-74
2022/06/18 10:16:17;;;;;;;3.15;2.45;;;33.20;22.90;;;;;;5033878;28;20256;-74
2022/06/18 10:18:52;;;;;;;8.07;2.53;;;33.50;21.80;;;;;;5033470;28;20233;-76
2022/06/18 10:21:24;;;;;;;2.75;2.33;;;34.30;20.60;;;;;;5033595;28;20197;-75
2022/06/18 10:23:59;;;;;;;6.80;2.10;;;34.20;19.90;;;;;;5033729;28;20252;-75
2022/06/18 10:26:41;;;;;;;4.53;2.22;;;33.70;19.60;;;;;;5033784;28;20266;-75
2022/06/18 10:29:17;;;;;;;5.53;2.35;;;33.10;19.80;;;;;;5033474;28;20657;-76
2022/06/18 10:31:58;;;;;;;5.80;2.50;;;33.60;19.60;;;;;;5034259;28;20202;-75
2022/06/18 10:34:46;;;;;;;5.95;2.83;;;34.30;19.50;;;;;;5033611;28;20251;-76
2022/06/18 10:37:22;;;;;;;4.60;2.30;;;35.80;19.30;;;;;;5033541;28;20245;-77
2022/06/18 10:40:02;;;;;;;5.50;2.72;;;36.00;18.50;;;;;;5033159;28;20206;-77
2022/06/18 10:42:41;;;;;;;4.10;2.40;;;35.20;18.60;;;;;;5032997;28;20201;-77
2022/06/18 10:45:15;;;;;;;8.38;2.80;;;35.00;19.30;;;;;;5033226;28;20538;-76
2022/06/18 10:47:45;;;;;;;5.20;2.88;;;35.30;19.40;;;;;;5033249;28;20198;-76
2022/06/18 10:50:14;;;;;;;7.20;2.50;;;34.80;18.40;;;;;;5033269;28;20247;-76
2022/06/18 10:52:41;;;;;;;5.97;2.80;;;35.50;18.70;;;;;;5033049;28;20264;-76
2022/06/18 10:55:14;;;;;;;6.45;2.70;;;35.50;18.40;;;;;;5033351;28;20210;-76
2022/06/18 10:57:41;;;;;;;9.30;2.83;;;35.90;17.00;;;;;;5033089;28;20208;-76
2022/06/18 11:00:17;;;;;;;5.28;2.58;;;34.60;17.30;;;;;;5033066;28;20259;-75
2022/06/18 11:02:47;;;;;;;6.03;3.28;;;35.40;16.90;;;;;;5033170;28;20193;-76
2022/06/18 11:05:24;;;;;;;5.65;2.72;;;36.20;16.60;;;;;;5033090;28;20239;-76
2022/06/18 11:07:53;;;;;;;6.65;2.95;;;37.50;15.60;;;;;;5033061;28;20224;-75
2022/06/18 11:10:31;;;;;;;7.20;2.78;;;38.90;15.00;;;;;;5047059;28;20726;-75
2022/06/18 11:13:00;;;;;;;6.88;2.53;;;39.90;15.40;;;;;;5052622;28;20201;-77
2022/06/18 11:15:30;;;;;;;3.75;2.30;;;40.50;14.40;;;;;;5052417;28;20197;-76
2022/06/18 11:18:00;;;;;;;5.40;2.72;;;39.80;14.30;;;;;;5052138;28;20766;-75
2022/06/18 11:20:29;;;;;;;5.25;2.53;;;39.50;14.10;;;;;;5052181;28;20251;-76
2022/06/18 11:22:59;;;;;;;6.18;2.60;;;40.10;14.40;;;;;;5052426;28;20197;-77
2022/06/18 11:25:31;;;;;;;6.43;2.72;;;40.40;13.20;;;;;;5052437;28;20243;-76
2022/06/18 11:28:00;;;;;;;6.47;2.75;;;41.00;12.70;;;;;;5052445;28;20261;-76
2022/06/18 11:30:31;;;;;;;5.53;2.42;;;40.80;12.50;;;;;;5052629;28;20231;-77
2022/06/18 11:33:01;;;;;;;4.40;2.50;;;41.70;11.90;;;;;;5052596;28;20197;-75
2022/06/18 11:35:32;;;;;;;7.68;2.95;;;42.10;12.30;;;;;;5052372;28;20258;-75
2022/06/18 11:38:01;;;;;;;5.88;2.47;;;40.80;11.90;;;;;;5052317;28;20197;-75
2022/06/18 11:40:28;;;;;;;7.60;2.80;;;40.20;12.00;;;;;;5052114;28;20200;-75
2022/06/18 11:42:57;;;;;;;7.80;2.83;;;40.10;12.40;;;;;;5052550;28;20211;-75
2022/06/18 11:45:40;;;;;;;11.13;3.30;;;41.00;11.60;;;;;;5052569;28;20197;-75
2022/06/18 11:48:19;;;;;;;10.55;3.17;;;40.40;11.60;;;;;;5052379;28;20541;-75
2022/06/18 11:50:51;;;;;;;8.00;2.72;;;39.60;11.40;;;;;;5052376;28;20602;-76
2022/06/18 11:53:22;;;;;;;8.85;2.88;;;40.80;11.40;;;;;;5052501;28;20255;-75
2022/06/18 11:55:53;;;;;;;4.80;2.70;;;41.00;11.00;;;;;;5055439;28;20643;-76
2022/06/18 11:58:25;;;;;;;8.13;2.60;;;40.40;11.20;;;;;;5056126;28;20438;-76
2022/06/18 12:00:59;;;;;;;6.38;2.60;;;39.60;11.40;;;;;;5056127;28;20258;-75
2022/06/18 12:03:36;;;;;;;5.05;2.80;;;41.00;10.70;;;;;;5055762;28;20201;-76
2022/06/18 12:06:08;;;;;;;9.88;2.88;;;41.10;10.40;;;;;;5036264;28;20198;-75
2022/06/18 12:08:35;;;;;;;8.85;3.13;;;40.20;10.80;;;;;;5036234;28;20198;-76
2022/06/18 12:11:08;;;;;;;7.45;2.50;;;39.90;11.20;;;;;;5036412;28;20198;-77
2022/06/18 12:13:41;;;;;;;9.90;2.95;;;40.70;11.30;;;;;;5035833;28;20656;-75
2022/06/18 12:16:21;;;;;;;8.25;2.60;;;40.50;10.60;;;;;;5035875;28;20644;-74
2022/06/18 12:18:52;;;;;;;11.75;3.08;;;40.20;10.10;;;;;;5035651;28;20724;-75
2022/06/18 12:21:28;;;;;;;11.70;3.10;;;41.80;9.40;;;;;;5035946;28;20263;-75
2022/06/18 12:24:03;;;;;;;9.65;3.20;;;42.80;9.50;;;;;;5035897;28;20247;-75
2022/06/18 12:26:36;;;;;;;7.93;3.00;;;43.90;8.90;;;;;;5035748;28;20205;-75
2022/06/18 12:29:21;;;;;;;7.18;3.00;;;41.30;8.90;;;;;;5035784;28;20213;-75
2022/06/18 12:31:55;;;;;;;10.52;3.28;;;40.70;9.30;;;;;;5036405;28;20267;-75
2022/06/18 12:34:31;;;;;;;9.10;2.92;;;41.00;9.60;;;;;;5036141;28;20205;-75
2022/06/18 12:37:06;;;;;;;14.57;4.10;;;40.10;9.90;;;;;;5035953;28;20255;-75
2022/06/18 12:39:42;;;;;;;10.30;3.70;;;40.80;9.70;;;;;;5035963;28;20221;-75
2022/06/18 12:42:16;;;;;;;9.93;3.20;;;42.00;9.80;;;;;;5036042;28;20201;-75
2022/06/18 12:44:46;;;;;;;8.70;3.13;;;42.60;9.70;;;;;;5035601;28;20255;-75
2022/06/18 12:47:21;;;;;;;10.00;3.08;;;43.10;9.40;;;;;;5035482;28;20202;-76
2022/06/18 12:49:57;;;;;;;10.10;3.20;;;42.90;9.00;;;;;;5035709;28;20197;-76
2022/06/18 12:52:34;;;;;;;7.95;5.10;;;43.50;8.20;;;;;;5035534;28;20194;-75
2022/06/18 12:55:16;;;;;;;10.48;3.42;;;42.90;8.10;;;;;;5035412;28;20260;-77
2022/06/18 12:57:56;;;;;;;11.50;3.50;;;42.20;8.70;;;;;;5035247;28;20253;-74
2022/06/18 13:00:30;;;;;;;7.22;3.40;;;40.60;9.60;;;;;;5035103;28;20229;-75
2022/06/18 13:03:42;;;;;;;11.52;3.22;;;41.30;9.30;;;;;;5031889;28;20193;-76
2022/06/18 13:06:20;;;;;;;8.13;3.50;;;40.20;9.80;;;;;;4950190;28;20240;-75
2022/06/18 13:08:55;;;;;;;8.35;3.53;;;41.10;9.80;;;;;;5038048;28;20242;-78
2022/06/18 13:11:33;;;;;;;7.18;3.78;;;41.20;9.90;;;;;;5052173;28;20726;-75
2022/06/18 13:14:11;;;;;;;14.00;3.35;;;41.60;9.00;;;;;;5054861;28;20679;-75